createdAt,value
2023-05-06T00:02:16.004Z,2.90
2023-05-06T00:04:43.293Z,3.50
2023-05-06T00:07:10.216Z,3.58
2023-05-06T00:09:36.969Z,2.70
2023-05-06T00:12:05.511Z,2.83
2023-05-06T00:14:32.397Z,2.53
2023-05-06T00:16:59.394Z,2.65
2023-05-06T00:19:26.435Z,2.70
2023-05-06T00:21:53.274Z,3.03
2023-05-06T00:24:19.994Z,3.63
2023-05-06T00:26:46.737Z,3.20
2023-05-06T00:29:13.770Z,2.85
2023-05-06T00:31:41.193Z,3.10
2023-05-06T00:34:08.190Z,3.03
2023-05-06T00:36:35.039Z,3.25
2023-05-06T00:39:01.839Z,3.83
2023-05-06T00:41:32.970Z,3.90
2023-05-06T00:44:00.219Z,4.05
2023-05-06T00:46:27.600Z,3.55
2023-05-06T00:48:55.252Z,3.55
2023-05-06T00:51:22.505Z,3.22
2023-05-06T00:53:50.000Z,3.20
2023-05-06T00:56:20.496Z,3.20
2023-05-06T00:58:48.200Z,3.28
2023-05-06T01:01:15.153Z,3.10
2023-05-06T01:03:42.176Z,3.00
2023-05-06T01:06:30.308Z,3.22
2023-05-06T01:09:20.930Z,2.90
2023-05-06T01:12:06.027Z,2.85
2023-05-06T01:14:48.713Z,2.53
2023-05-06T01:17:18.753Z,2.42
2023-05-06T01:19:53.518Z,2.70
2023-05-06T01:22:21.113Z,2.63
2023-05-06T01:24:47.810Z,2.13
2023-05-06T01:27:16.786Z,2.72
2023-05-06T01:29:45.752Z,2.25
2023-05-06T01:32:19.189Z,2.58
2023-05-06T01:35:03.757Z,2.88
2023-05-06T01:37:40.650Z,3.08
2023-05-06T01:40:08.246Z,2.75
2023-05-06T01:42:37.579Z,2.58
2023-05-06T01:45:06.111Z,2.42
2023-05-06T01:47:33.860Z,2.88
2023-05-06T01:50:02.081Z,2.63
2023-05-06T01:52:28.887Z,2.50
2023-05-06T01:54:55.617Z,3.20
2023-05-06T01:57:22.291Z,2.80
2023-05-06T01:59:49.090Z,3.05
2023-05-06T02:02:15.771Z,2.92
2023-05-06T02:04:42.548Z,2.85
2023-05-06T02:07:09.659Z,2.80
2023-05-06T02:09:36.461Z,2.85
2023-05-06T02:12:05.184Z,2.80
2023-05-06T02:14:32.101Z,3.20
2023-05-06T02:17:06.586Z,3.42
2023-05-06T02:19:34.337Z,3.05
2023-05-06T02:22:00.998Z,3.83
2023-05-06T02:24:27.882Z,4.28
2023-05-06T02:26:54.641Z,4.05
2023-05-06T02:29:21.482Z,4.47
2023-05-06T02:31:48.272Z,4.47
2023-05-06T02:34:16.871Z,4.18
2023-05-06T02:36:43.689Z,4.22
2023-05-06T02:39:10.570Z,3.88
2023-05-06T02:41:37.568Z,5.20
2023-05-06T02:44:04.672Z,4.47
2023-05-06T02:46:31.614Z,4.25
2023-05-06T02:48:58.485Z,3.50
2023-05-06T02:51:25.296Z,3.67
2023-05-06T02:53:52.150Z,3.83
2023-05-06T02:56:19.011Z,4.32
2023-05-06T02:58:45.926Z,4.25
2023-05-06T03:01:12.733Z,4.75
2023-05-06T03:03:39.635Z,4.00
2023-05-06T03:06:06.502Z,4.90
2023-05-06T03:08:33.651Z,4.40
2023-05-06T03:11:01.551Z,4.40
2023-05-06T03:13:28.520Z,3.75
2023-05-06T03:15:55.567Z,3.70
2023-05-06T03:18:23.571Z,4.80
2023-05-06T03:20:51.238Z,4.90
2023-05-06T03:23:18.651Z,4.57
2023-05-06T03:25:46.323Z,4.55
2023-05-06T03:28:13.840Z,4.03
2023-05-06T03:30:42.661Z,4.70
2023-05-06T03:33:09.578Z,4.55
2023-05-06T03:35:36.503Z,4.55
2023-05-06T03:38:03.796Z,4.40
2023-05-06T03:40:38.269Z,4.00
2023-05-06T03:43:05.577Z,4.38
2023-05-06T03:45:33.032Z,4.32
2023-05-06T03:48:05.114Z,4.70
2023-05-06T03:50:34.647Z,5.43
2023-05-06T03:53:02.614Z,4.85
2023-05-06T03:55:32.448Z,4.07
2023-05-06T03:58:02.940Z,4.68
2023-05-06T04:00:29.832Z,4.60
2023-05-06T04:02:56.764Z,4.47
2023-05-06T04:05:30.566Z,3.90
2023-05-06T04:07:57.944Z,4.25
2023-05-06T04:10:24.723Z,4.18
2023-05-06T04:12:54.347Z,5.15
2023-05-06T04:15:26.906Z,4.93
2023-05-06T04:17:54.142Z,6.00
2023-05-06T04:20:21.566Z,4.35
2023-05-06T04:22:48.699Z,4.35
2023-05-06T04:25:18.408Z,5.30
2023-05-06T04:27:46.594Z,6.32
2023-05-06T04:30:13.685Z,6.20
2023-05-06T04:32:40.711Z,7.78
2023-05-06T04:35:08.348Z,7.50
2023-05-06T04:37:36.942Z,6.43
2023-05-06T04:40:12.305Z,6.38
2023-05-06T04:42:40.680Z,5.80
2023-05-06T04:45:12.985Z,5.65
2023-05-06T04:47:44.014Z,5.72
2023-05-06T04:50:11.749Z,5.40
2023-05-06T04:52:38.515Z,5.07
2023-05-06T04:55:06.307Z,5.30
2023-05-06T04:57:35.205Z,5.10
2023-05-06T05:00:03.589Z,4.72
2023-05-06T05:02:30.433Z,4.50
2023-05-06T05:04:57.495Z,4.53
2023-05-06T05:07:24.932Z,4.53
2023-05-06T05:09:52.067Z,4.25
2023-05-06T05:12:18.850Z,4.75
2023-05-06T05:14:48.605Z,4.20
2023-05-06T05:17:15.486Z,4.25
2023-05-06T05:19:42.554Z,3.80
2023-05-06T05:22:10.270Z,4.20
2023-05-06T05:24:37.258Z,5.80
2023-05-06T05:27:04.105Z,6.75
2023-05-06T05:29:31.080Z,6.38
2023-05-06T05:32:00.103Z,5.97
2023-05-06T05:34:26.924Z,6.05
2023-05-06T05:36:54.785Z,4.90
2023-05-06T05:39:22.063Z,6.32
2023-05-06T05:41:49.086Z,6.82
2023-05-06T05:44:19.180Z,5.07
2023-05-06T05:46:46.302Z,4.80
2023-05-06T05:49:16.332Z,4.93
2023-05-06T05:51:43.642Z,5.22
2023-05-06T05:54:14.381Z,5.95
2023-05-06T05:56:42.341Z,5.45
2023-05-06T05:59:09.101Z,5.05
2023-05-06T06:01:36.084Z,4.78
2023-05-06T06:04:03.890Z,3.97
2023-05-06T06:06:31.564Z,5.32
2023-05-06T06:08:58.988Z,5.00
2023-05-06T06:11:28.827Z,4.85
2023-05-06T06:13:55.751Z,5.40
2023-05-06T06:16:22.816Z,5.38
2023-05-06T06:18:50.073Z,4.45
2023-05-06T06:21:17.945Z,4.20
2023-05-06T06:23:45.132Z,4.80
2023-05-06T06:26:12.419Z,4.32
2023-05-06T06:28:39.818Z,4.97
2023-05-06T06:31:06.522Z,4.75
2023-05-06T06:33:33.325Z,5.55
2023-05-06T06:36:00.055Z,5.30
2023-05-06T06:38:26.961Z,6.35
2023-05-06T06:40:54.057Z,7.57
2023-05-06T06:43:20.934Z,6.97
2023-05-06T06:45:56.575Z,7.15
2023-05-06T06:48:23.613Z,7.00
2023-05-06T06:50:50.605Z,6.07
2023-05-06T06:53:17.654Z,6.43
2023-05-06T06:55:47.262Z,7.18
2023-05-06T06:58:14.061Z,6.10
2023-05-06T07:00:40.777Z,5.20
2023-05-06T07:03:07.702Z,5.60
2023-05-06T07:05:34.514Z,5.47
2023-05-06T07:08:01.276Z,5.55
2023-05-06T07:10:28.059Z,6.10
2023-05-06T07:12:54.976Z,6.03
2023-05-06T07:15:21.897Z,5.90
2023-05-06T07:17:48.744Z,5.65
2023-05-06T07:20:16.337Z,5.35
2023-05-06T07:22:43.834Z,5.60
2023-05-06T07:25:10.813Z,5.82
2023-05-06T07:27:37.964Z,6.10
2023-05-06T07:30:05.674Z,6.50
2023-05-06T07:32:32.516Z,5.70
2023-05-06T07:34:59.839Z,5.75
2023-05-06T07:37:26.684Z,4.47
2023-05-06T07:39:53.411Z,5.90
2023-05-06T07:42:20.182Z,5.53
2023-05-06T07:44:46.967Z,5.82
2023-05-06T07:47:26.116Z,5.72
2023-05-06T07:49:53.027Z,5.60
2023-05-06T07:52:19.727Z,5.22
2023-05-06T07:54:46.620Z,5.55
2023-05-06T07:57:14.200Z,5.75
2023-05-06T07:59:40.987Z,5.45
2023-05-06T08:02:07.960Z,5.82
2023-05-06T08:04:34.893Z,5.25
2023-05-06T08:07:01.870Z,4.97
2023-05-06T08:09:28.685Z,5.13
2023-05-06T08:11:55.629Z,5.05
2023-05-06T08:14:22.505Z,4.72
2023-05-06T08:16:49.408Z,4.80
2023-05-06T08:19:16.215Z,5.47
2023-05-06T08:21:42.956Z,5.45
2023-05-06T08:24:11.160Z,5.50
2023-05-06T08:26:37.887Z,5.05
2023-05-06T08:29:06.069Z,5.20
2023-05-06T08:31:32.935Z,5.38
2023-05-06T08:33:59.805Z,4.88
2023-05-06T08:36:26.654Z,5.32
2023-05-06T08:38:53.475Z,5.05
2023-05-06T08:41:22.155Z,4.93
2023-05-06T08:43:50.630Z,5.47
2023-05-06T08:46:18.001Z,4.35
2023-05-06T08:48:45.495Z,5.30
2023-05-06T08:51:17.828Z,5.53
2023-05-06T08:53:48.682Z,4.72
2023-05-06T08:56:16.621Z,5.60
2023-05-06T08:58:48.613Z,4.80
2023-05-06T09:01:16.198Z,5.82
2023-05-06T09:03:44.497Z,5.50
2023-05-06T09:06:11.377Z,5.40
2023-05-06T09:08:38.079Z,5.65
2023-05-06T09:11:21.990Z,5.63
2023-05-06T09:13:49.772Z,6.70
2023-05-06T09:16:30.200Z,5.13
2023-05-06T09:18:57.397Z,5.00
2023-05-06T09:21:32.600Z,4.65
2023-05-06T09:24:00.942Z,5.10
2023-05-06T09:26:29.633Z,5.32
2023-05-06T09:28:57.976Z,4.97
2023-05-06T09:31:26.553Z,4.85
2023-05-06T09:33:54.333Z,4.93
2023-05-06T09:36:21.886Z,5.85
2023-05-06T09:38:48.758Z,5.30
2023-05-06T09:41:16.746Z,4.95
2023-05-06T09:43:44.941Z,4.80
2023-05-06T09:46:16.092Z,5.10
2023-05-06T09:48:43.714Z,5.10
2023-05-06T09:51:11.074Z,5.90
2023-05-06T09:53:38.324Z,5.80
2023-05-06T09:56:06.414Z,5.40
2023-05-06T09:58:37.295Z,5.28
2023-05-06T10:01:06.000Z,5.10
2023-05-06T10:03:33.983Z,4.82
2023-05-06T10:06:02.517Z,4.60
2023-05-06T10:08:29.669Z,5.22
2023-05-06T10:10:57.059Z,5.13
2023-05-06T10:13:27.087Z,4.72
2023-05-06T10:15:54.286Z,4.80
2023-05-06T10:18:22.178Z,4.45
2023-05-06T10:20:49.643Z,5.00
2023-05-06T10:23:26.017Z,4.18
2023-05-06T10:26:07.770Z,4.18
2023-05-06T10:28:42.097Z,4.50
2023-05-06T10:31:13.209Z,4.55
2023-05-06T10:33:47.441Z,4.43
2023-05-06T10:36:22.936Z,4.03
2023-05-06T10:38:56.360Z,5.15
2023-05-06T10:41:27.745Z,3.50
2023-05-06T10:43:59.401Z,4.45
2023-05-06T10:46:30.799Z,3.80
2023-05-06T10:49:08.464Z,4.55
2023-05-06T10:51:40.390Z,5.00
2023-05-06T10:56:59.303Z,3.92
2023-05-06T10:59:29.778Z,3.55
2023-05-06T11:02:08.524Z,3.58
2023-05-06T11:04:35.665Z,3.65
2023-05-06T11:07:13.798Z,3.83
2023-05-06T11:10:06.932Z,3.28
2023-05-06T11:12:53.781Z,3.05
2023-05-06T11:15:40.771Z,3.58
2023-05-06T11:18:29.413Z,3.58
2023-05-06T11:21:03.052Z,3.42
2023-05-06T11:26:11.426Z,3.00
2023-05-06T11:28:39.340Z,3.45
2023-05-06T11:31:07.104Z,3.38
2023-05-06T11:33:37.748Z,3.45
2023-05-06T11:36:06.596Z,3.03
2023-05-06T11:38:47.071Z,3.28
2023-05-06T11:41:15.503Z,3.80
2023-05-06T11:43:52.376Z,2.67
2023-05-06T11:46:20.612Z,3.38
2023-05-06T11:48:47.854Z,3.20
2023-05-06T11:51:16.198Z,3.13
2023-05-06T11:53:43.084Z,2.58
2023-05-06T11:56:09.908Z,2.92
2023-05-06T11:58:36.758Z,3.50
2023-05-06T12:01:07.263Z,3.08
2023-05-06T12:03:34.713Z,2.85
2023-05-06T12:06:01.905Z,2.65
2023-05-06T12:08:32.174Z,2.58
2023-05-06T12:11:02.303Z,3.00
2023-05-06T12:13:30.048Z,2.92
2023-05-06T12:15:59.335Z,2.78
2023-05-06T12:18:30.164Z,2.17
2023-05-06T12:21:02.290Z,2.47
2023-05-06T12:23:29.304Z,2.70
2023-05-06T12:26:04.028Z,2.67
2023-05-06T12:28:32.733Z,2.30
2023-05-06T12:30:59.970Z,2.35
2023-05-06T12:33:26.857Z,2.63
2023-05-06T12:35:57.139Z,2.60
2023-05-06T12:38:23.985Z,2.50
2023-05-06T12:40:55.276Z,2.45
2023-05-06T12:43:31.530Z,2.38
2023-05-06T12:46:06.553Z,2.28
2023-05-06T12:48:33.868Z,2.30
2023-05-06T12:51:00.569Z,2.00
2023-05-06T12:53:35.280Z,2.70
2023-05-06T12:56:02.065Z,1.98
2023-05-06T12:58:28.899Z,2.33
2023-05-06T13:00:55.843Z,2.22
2023-05-06T13:03:22.727Z,2.10
2023-05-06T13:05:52.089Z,2.00
2023-05-06T13:08:19.258Z,1.95
2023-05-06T13:10:46.056Z,1.98
2023-05-06T13:13:12.835Z,2.38
2023-05-06T13:15:41.297Z,2.40
2023-05-06T13:18:09.269Z,2.75
2023-05-06T13:20:36.702Z,2.63
2023-05-06T13:23:03.953Z,2.92
2023-05-06T13:25:30.823Z,2.33
2023-05-06T13:27:57.490Z,2.60
2023-05-06T13:30:24.415Z,2.28
2023-05-06T13:32:51.280Z,2.55
2023-05-06T13:35:18.204Z,2.80
2023-05-06T13:37:44.905Z,2.50
2023-05-06T13:40:12.548Z,2.53
2023-05-06T13:42:40.667Z,2.80
2023-05-06T13:45:08.482Z,2.80
2023-05-06T13:47:35.407Z,2.80
2023-05-06T13:50:03.856Z,2.40
2023-05-06T13:52:30.641Z,2.50
2023-05-06T13:54:57.789Z,2.72
2023-05-06T13:57:26.040Z,2.70
2023-05-06T13:59:53.001Z,2.42
2023-05-06T14:02:20.033Z,2.60
2023-05-06T14:04:46.863Z,2.08
2023-05-06T14:07:13.705Z,2.25
2023-05-06T14:09:40.422Z,2.75
2023-05-06T14:12:07.254Z,2.30
2023-05-06T14:14:34.013Z,2.72
2023-05-06T14:17:00.814Z,2.67
2023-05-06T14:19:27.881Z,3.20
2023-05-06T14:21:55.843Z,2.75
2023-05-06T14:24:22.562Z,2.92
2023-05-06T14:26:49.276Z,2.70
2023-05-06T14:29:16.110Z,2.80
2023-05-06T14:31:42.892Z,2.30
2023-05-06T14:34:09.783Z,2.30
2023-05-06T14:36:36.608Z,2.33
2023-05-06T14:39:03.469Z,2.67
2023-05-06T14:41:31.071Z,2.40
2023-05-06T14:43:58.001Z,2.40
2023-05-06T14:46:27.749Z,2.15
2023-05-06T14:48:56.318Z,2.25
2023-05-06T14:51:23.357Z,2.45
2023-05-06T14:53:50.127Z,2.30
2023-05-06T14:56:17.090Z,2.60
2023-05-06T14:58:44.042Z,2.10
2023-05-06T15:01:10.961Z,2.05
2023-05-06T15:03:37.778Z,2.15
2023-05-06T15:06:05.480Z,2.10
2023-05-06T15:08:32.448Z,2.10
2023-05-06T15:11:00.187Z,2.28
2023-05-06T15:13:28.026Z,2.47
2023-05-06T15:15:55.289Z,2.65
2023-05-06T15:18:22.320Z,2.20
2023-05-06T15:20:49.043Z,2.20
2023-05-06T15:23:15.761Z,2.50
2023-05-06T15:25:42.668Z,2.15
2023-05-06T15:28:09.464Z,2.45
2023-05-06T15:30:37.832Z,2.08
2023-05-06T15:33:06.042Z,2.50
2023-05-06T15:35:32.859Z,2.30
2023-05-06T15:37:59.684Z,2.13
2023-05-06T15:40:27.266Z,2.03
2023-05-06T15:42:54.385Z,2.17
2023-05-06T15:45:22.174Z,1.98
2023-05-06T15:47:49.184Z,2.30
2023-05-06T15:50:28.927Z,2.30
2023-05-06T15:52:59.141Z,1.90
2023-05-06T15:55:26.686Z,2.20
2023-05-06T15:57:59.090Z,2.10
2023-05-06T16:00:28.085Z,2.10
2023-05-06T16:02:54.972Z,2.03
2023-05-06T16:05:21.969Z,2.10
2023-05-06T16:07:48.744Z,2.22
2023-05-06T16:10:15.767Z,2.20
2023-05-06T16:12:42.543Z,2.92
2023-05-06T16:15:09.990Z,2.38
2023-05-06T16:17:37.779Z,2.42
2023-05-06T16:20:05.522Z,2.00
2023-05-06T16:22:32.344Z,2.50
2023-05-06T16:24:59.128Z,2.15
2023-05-06T16:27:28.294Z,2.20
2023-05-06T16:29:55.652Z,2.20
2023-05-06T16:32:23.314Z,1.92
2023-05-06T16:34:50.471Z,1.80
2023-05-06T16:37:17.284Z,2.20
2023-05-06T16:39:44.072Z,2.30
2023-05-06T16:42:10.800Z,2.10
2023-05-06T16:44:37.776Z,2.42
2023-05-06T16:47:04.687Z,2.33
2023-05-06T16:49:33.450Z,2.08
2023-05-06T16:52:00.827Z,2.40
2023-05-06T16:54:27.638Z,2.47
2023-05-06T16:56:54.853Z,2.25
2023-05-06T16:59:22.379Z,1.90
2023-05-06T17:01:50.101Z,2.17
2023-05-06T17:04:17.055Z,2.13
2023-05-06T17:06:44.070Z,2.45
2023-05-06T17:09:11.073Z,2.35
2023-05-06T17:11:37.857Z,2.03
2023-05-06T17:14:04.942Z,2.65
2023-05-06T17:16:32.131Z,2.30
2023-05-06T17:18:59.081Z,1.85
2023-05-06T17:21:26.966Z,2.22
2023-05-06T17:23:54.582Z,2.38
2023-05-06T17:26:21.958Z,2.40
2023-05-06T17:28:49.009Z,1.92
2023-05-06T17:31:16.147Z,2.55
2023-05-06T17:33:47.095Z,3.10
2023-05-06T17:36:14.306Z,2.60
2023-05-06T17:38:41.078Z,3.38
2023-05-06T17:41:07.975Z,2.75
2023-05-06T17:43:34.961Z,3.35
2023-05-06T17:46:01.885Z,3.22
2023-05-06T17:48:28.817Z,2.80
2023-05-06T17:51:02.036Z,3.17
2023-05-06T17:53:29.906Z,3.72
2023-05-06T17:55:57.084Z,4.35
2023-05-06T17:58:23.998Z,4.35
2023-05-06T18:00:50.801Z,4.97
2023-05-06T18:03:17.688Z,6.90
2023-05-06T18:05:44.551Z,8.13
2023-05-06T18:08:11.275Z,6.88
2023-05-06T18:10:38.030Z,4.95
2023-05-06T18:13:04.926Z,4.10
2023-05-06T18:15:31.686Z,4.03
2023-05-06T18:17:58.591Z,3.15
2023-05-06T18:20:25.502Z,3.22
2023-05-06T18:22:52.314Z,3.33
2023-05-06T18:25:19.202Z,3.67
2023-05-06T18:27:48.354Z,3.45
2023-05-06T18:30:16.039Z,2.92
2023-05-06T18:32:42.788Z,3.20
2023-05-06T18:35:11.087Z,3.80
2023-05-06T18:37:38.658Z,4.28
2023-05-06T18:40:06.243Z,3.50
2023-05-06T18:42:34.016Z,4.22
2023-05-06T18:45:04.998Z,4.10
2023-05-06T18:47:35.278Z,4.40
2023-05-06T18:50:02.175Z,4.28
2023-05-06T18:52:29.279Z,4.80
2023-05-06T18:54:56.293Z,4.93
2023-05-06T18:57:24.165Z,4.82
2023-05-06T18:59:51.163Z,5.63
2023-05-06T19:02:18.049Z,6.93
2023-05-06T19:04:47.718Z,9.82
2023-05-06T19:07:16.150Z,8.63
2023-05-06T19:09:43.201Z,5.88
2023-05-06T19:12:10.067Z,5.97
2023-05-06T19:14:37.313Z,5.75
2023-05-06T19:17:05.055Z,5.88
2023-05-06T19:19:32.152Z,5.30
2023-05-06T19:22:01.869Z,6.30
2023-05-06T19:24:30.559Z,5.60
2023-05-06T19:26:57.433Z,5.38
2023-05-06T19:29:24.449Z,4.45
2023-05-06T19:31:54.062Z,4.45
2023-05-06T19:34:21.055Z,4.55
2023-05-06T19:36:47.984Z,4.97
2023-05-06T19:39:16.454Z,4.75
2023-05-06T19:41:43.605Z,4.65
2023-05-06T19:44:10.447Z,4.57
2023-05-06T19:46:37.473Z,4.90
2023-05-06T19:49:05.037Z,5.10
2023-05-06T19:51:32.445Z,4.85
2023-05-06T19:53:59.251Z,5.22
2023-05-06T19:56:28.588Z,5.05
2023-05-06T19:58:56.795Z,5.30
2023-05-06T20:01:24.394Z,5.00
2023-05-06T20:03:51.502Z,5.20
2023-05-06T20:06:18.548Z,5.00
2023-05-06T20:08:46.007Z,4.97
2023-05-06T20:11:13.067Z,4.60
2023-05-06T20:13:42.183Z,3.72
2023-05-06T20:16:10.002Z,4.43
2023-05-06T20:18:37.344Z,3.70
2023-05-06T20:21:04.227Z,3.35
2023-05-06T20:23:31.489Z,3.90
2023-05-06T20:25:58.547Z,3.47
2023-05-06T20:28:26.434Z,3.10
2023-05-06T20:30:55.837Z,3.95
2023-05-06T20:33:22.955Z,4.20
2023-05-06T20:35:51.044Z,4.40
2023-05-06T20:38:19.479Z,4.10
2023-05-06T20:40:47.971Z,3.22
2023-05-06T20:43:14.744Z,3.78
2023-05-06T20:45:41.703Z,3.42
2023-05-06T20:48:08.689Z,3.70
2023-05-06T20:50:35.587Z,3.13
2023-05-06T20:53:02.439Z,3.05
2023-05-06T20:55:29.525Z,2.67
2023-05-06T20:57:58.789Z,3.25
2023-05-06T21:00:26.087Z,2.67
2023-05-06T21:02:53.217Z,3.55
2023-05-06T21:05:20.455Z,3.13
2023-05-06T21:07:47.497Z,2.70
2023-05-06T21:10:14.676Z,3.22
2023-05-06T21:12:47.276Z,3.58
2023-05-06T21:15:15.135Z,3.45
2023-05-06T21:17:42.576Z,3.08
2023-05-06T21:20:10.222Z,3.00
2023-05-06T21:22:37.222Z,2.80
2023-05-06T21:25:05.542Z,3.13
2023-05-06T21:27:32.454Z,3.05
2023-05-06T21:29:59.295Z,3.20
2023-05-06T21:32:26.516Z,4.25
2023-05-06T21:34:53.790Z,4.50
2023-05-06T21:37:20.472Z,5.13
2023-05-06T21:39:47.475Z,5.60
2023-05-06T21:42:14.267Z,5.68
2023-05-06T21:44:41.637Z,5.68
2023-05-06T21:47:08.464Z,5.40
2023-05-06T21:49:35.527Z,5.32
2023-05-06T21:52:02.288Z,4.22
2023-05-06T21:54:31.830Z,4.05
2023-05-06T21:56:58.697Z,4.35
2023-05-06T21:59:25.718Z,3.85
2023-05-06T22:01:53.070Z,3.35
2023-05-06T22:16:52.111Z,3.15
2023-05-06T22:19:46.520Z,3.75
2023-05-06T22:25:20.636Z,3.55
2023-05-06T22:31:27.355Z,3.80
2023-05-06T22:34:25.309Z,3.45
2023-05-06T22:37:54.748Z,3.55
